Time;durP1;ratioP1;P1;durP2;ratioP2;P2;SDS_P1;SDS_P2;PMS_P1;PMS_P2;Temp;Humidity;BMP_temperature;BMP_pressure;BME280_temperature;BME280_humidity;BME280_pressure;Samples;Min_cycle;Max_cycle;Signal;HPM_P1;HPM_P2
2021/04/03 00:00:24;;;;;;;13.68;9.80;;;12.90;47.40;;;;;;5031374;28;20040;-63
2021/04/03 00:02:50;;;;;;;12.40;9.70;;;13.00;46.60;;;;;;5031306;28;20026;-65
2021/04/03 00:05:16;;;;;;;13.15;10.30;;;12.90;46.60;;;;;;5031072;28;20029;-64
2021/04/03 00:07:43;;;;;;;14.52;9.68;;;12.90;46.70;;;;;;5030992;28;20451;-64
2021/04/03 00:10:13;;;;;;;13.98;9.68;;;12.90;46.60;;;;;;5030461;28;20030;-64
2021/04/03 00:12:39;;;;;;;12.93;10.05;;;12.80;46.80;;;;;;5031134;28;20386;-64
2021/04/03 00:15:06;;;;;;;10.48;8.27;;;12.70;46.80;;;;;;5012974;28;20462;-64
2021/04/03 00:17:32;;;;;;;12.35;8.77;;;12.70;46.70;;;;;;5031647;28;20021;-63
2021/04/03 00:19:57;;;;;;;10.23;8.13;;;12.70;46.30;;;;;;5012759;28;20159;-63
2021/04/03 00:22:23;;;;;;;10.68;7.53;;;12.60;46.00;;;;;;5030724;28;20033;-64
2021/04/03 00:24:50;;;;;;;11.85;8.13;;;12.60;45.90;;;;;;5031020;28;20025;-65
2021/04/03 00:27:15;;;;;;;11.30;8.00;;;12.50;45.90;;;;;;5012237;28;20029;-64
2021/04/03 00:29:41;;;;;;;11.00;7.72;;;12.40;45.80;;;;;;5011782;28;20087;-64
2021/04/03 00:32:07;;;;;;;10.43;7.65;;;12.30;45.90;;;;;;5033950;28;20028;-63
2021/04/03 00:34:33;;;;;;;12.25;7.45;;;12.30;45.70;;;;;;5012999;28;20026;-62
2021/04/03 00:36:59;;;;;;;9.20;7.05;;;12.30;45.40;;;;;;5030541;28;20034;-64
2021/04/03 00:39:24;;;;;;;8.77;6.82;;;12.30;45.20;;;;;;5030561;28;20022;-69
2021/04/03 00:41:50;;;;;;;10.30;7.70;;;12.20;45.10;;;;;;5026193;28;20033;-63
2021/04/03 00:44:16;;;;;;;10.18;7.30;;;12.20;44.80;;;;;;5028895;28;20057;-64
2021/04/03 00:46:42;;;;;;;12.77;6.93;;;12.10;45.10;;;;;;5030687;28;20057;-63
2021/04/03 00:49:08;;;;;;;9.23;6.65;;;12.10;44.90;;;;;;5030213;28;20030;-63
2021/04/03 00:51:34;;;;;;;10.02;7.22;;;12.10;45.00;;;;;;5031347;28;20025;-63
2021/04/03 00:54:00;;;;;;;9.55;7.85;;;12.10;44.90;;;;;;5030163;28;20036;-64
2021/04/03 00:56:26;;;;;;;9.48;7.50;;;12.00;44.60;;;;;;5030882;28;20029;-63
2021/04/03 00:58:53;;;;;;;11.50;7.93;;;11.90;44.50;;;;;;5031430;28;20038;-63
2021/04/03 01:01:19;;;;;;;11.50;7.30;;;11.90;44.30;;;;;;5030966;28;20654;-64
2021/04/03 01:03:45;;;;;;;10.10;7.35;;;12.00;44.40;;;;;;5034096;28;20382;-62
2021/04/03 01:06:11;;;;;;;9.77;7.57;;;12.00;44.40;;;;;;5015598;28;20102;-63
2021/04/03 01:08:37;;;;;;;10.68;7.78;;;11.90;44.10;;;;;;5034967;28;20018;-64
2021/04/03 01:11:03;;;;;;;12.32;8.85;;;11.90;44.00;;;;;;5034076;28;20585;-64
2021/04/03 01:13:29;;;;;;;10.88;8.05;;;11.80;44.10;;;;;;5034670;28;20419;-63
2021/04/03 01:16:10;;;;;;;11.63;8.30;;;11.90;44.10;;;;;;5034555;28;20039;-72
2021/04/03 01:18:54;;;;;;;11.10;8.02;;;11.90;44.10;;;;;;5034060;28;20144;-63
2021/04/03 01:21:56;;;;;;;11.05;7.72;;;11.90;44.20;;;;;;5033719;28;20026;-64
2021/04/03 01:24:55;;;;;;;9.82;7.97;;;11.90;44.30;;;;;;5016560;28;20033;-64
2021/04/03 01:27:22;;;;;;;11.73;8.05;;;11.90;44.50;;;;;;5016020;28;20117;-63
2021/04/03 01:30:18;;;;;;;11.52;8.48;;;11.90;44.50;;;;;;5034556;28;20450;-62
2021/04/03 01:33:11;;;;;;;11.57;8.75;;;11.90;44.60;;;;;;5018213;28;20046;-63
2021/04/03 01:35:51;;;;;;;12.05;9.57;;;11.80;45.00;;;;;;5011855;28;20509;-63
2021/04/03 01:38:52;;;;;;;12.77;9.80;;;11.60;45.60;;;;;;5015562;28;20116;-64
2021/04/03 01:41:23;;;;;;;14.65;10.25;;;11.60;45.70;;;;;;5033332;28;20029;-63
2021/04/03 01:43:51;;;;;;;15.63;9.77;;;11.50;45.90;;;;;;5000830;28;20061;-63
2021/04/03 01:46:19;;;;;;;14.30;9.93;;;11.50;46.00;;;;;;5015794;28;20029;-63
2021/04/03 01:48:45;;;;;;;14.40;10.38;;;11.50;45.90;;;;;;5026504;28;20025;-63
2021/04/03 01:51:14;;;;;;;13.95;11.20;;;11.50;45.90;;;;;;5033285;28;20036;-64
2021/04/03 01:53:42;;;;;;;14.50;11.45;;;11.60;45.90;;;;;;5033519;28;20428;-64
2021/04/03 01:56:09;;;;;;;14.50;11.45;;;11.50;46.00;;;;;;5033384;28;20417;-64
2021/04/03 01:58:36;;;;;;;14.77;11.23;;;11.50;46.30;;;;;;5031314;28;20033;-64
2021/04/03 02:01:04;;;;;;;17.20;12.45;;;11.40;46.40;;;;;;5033105;28;20076;-66
2021/04/03 02:03:33;;;;;;;14.55;12.20;;;11.40;46.40;;;;;;5015881;28;20462;-64
2021/04/03 02:06:03;;;;;;;15.65;12.88;;;11.40;46.40;;;;;;5015646;28;20029;-74
2021/04/03 02:08:29;;;;;;;17.35;12.50;;;11.50;46.40;;;;;;5015448;28;20045;-64
2021/04/03 02:11:00;;;;;;;15.15;12.40;;;11.50;46.30;;;;;;4999772;28;20025;-63
2021/04/03 02:13:29;;;;;;;18.10;12.50;;;11.50;46.30;;;;;;5032308;28;20091;-64
2021/04/03 02:15:55;;;;;;;19.08;13.93;;;11.60;46.00;;;;;;5030213;28;20029;-65
2021/04/03 02:18:22;;;;;;;16.17;13.07;;;11.60;46.30;;;;;;5032671;28;20095;-64
2021/04/03 02:20:48;;;;;;;18.95;13.55;;;11.50;46.50;;;;;;5033251;28;20026;-63
2021/04/03 02:23:14;;;;;;;18.00;12.95;;;11.50;46.70;;;;;;5032723;28;20492;-64
2021/04/03 02:25:40;;;;;;;16.02;13.15;;;11.50;46.90;;;;;;5032942;28;20471;-64
2021/04/03 02:28:06;;;;;;;16.98;13.45;;;11.50;46.90;;;;;;5014876;28;20029;-64
2021/04/03 02:30:32;;;;;;;17.52;13.68;;;11.50;46.90;;;;;;5033635;28;20025;-63
2021/04/03 02:32:58;;;;;;;16.75;13.63;;;11.50;47.00;;;;;;5027335;28;20034;-63
2021/04/03 02:35:25;;;;;;;18.38;13.77;;;11.50;47.10;;;;;;5032623;28;20033;-63
2021/04/03 02:37:57;;;;;;;17.27;13.50;;;11.50;46.80;;;;;;5032772;28;20032;-63
2021/04/03 02:40:25;;;;;;;19.67;14.65;;;11.50;46.90;;;;;;5032090;28;20033;-64
2021/04/03 02:43:05;;;;;;;14.82;13.32;;;11.50;47.20;;;;;;5015292;28;20026;-63
2021/04/03 02:45:36;;;;;;;18.50;13.93;;;11.40;47.30;;;;;;5033348;28;20018;-63
2021/04/03 02:48:09;;;;;;;17.33;13.70;;;11.50;47.60;;;;;;5032186;28;20104;-75
2021/04/03 02:50:40;;;;;;;19.05;14.52;;;11.40;47.60;;;;;;5010735;28;20026;-64
2021/04/03 02:53:09;;;;;;;16.40;13.65;;;11.40;47.90;;;;;;5031617;28;20044;-63
2021/04/03 02:55:37;;;;;;;16.65;13.88;;;11.30;47.90;;;;;;5032836;28;20031;-64
2021/04/03 02:58:05;;;;;;;14.80;12.88;;;11.30;48.90;;;;;;5032015;28;20021;-75
2021/04/03 03:00:31;;;;;;;17.50;13.80;;;11.20;48.40;;;;;;5015279;28;20087;-63
2021/04/03 03:02:57;;;;;;;19.08;14.10;;;11.20;48.60;;;;;;5031648;28;20445;-63
2021/04/03 03:05:23;;;;;;;16.33;13.23;;;11.20;48.50;;;;;;5013634;28;20470;-64
2021/04/03 03:07:50;;;;;;;18.73;13.70;;;11.20;48.60;;;;;;5031627;28;20056;-64
2021/04/03 03:10:18;;;;;;;16.02;13.48;;;11.20;48.40;;;;;;5031963;28;20116;-63
2021/04/03 03:12:45;;;;;;;18.92;14.07;;;11.10;48.60;;;;;;5031997;28;20334;-63
2021/04/03 03:15:31;;;;;;;17.55;14.25;;;11.10;48.90;;;;;;5013675;28;20033;-64
2021/04/03 03:17:57;;;;;;;18.83;14.80;;;10.90;48.90;;;;;;5014769;28;20091;-70
2021/04/03 03:20:24;;;;;;;17.40;14.55;;;10.90;49.10;;;;;;5013612;28;20257;-63
2021/04/03 03:22:50;;;;;;;18.40;14.35;;;10.90;49.10;;;;;;5026711;28;20103;-63
2021/04/03 03:25:34;;;;;;;16.92;14.60;;;10.80;49.10;;;;;;5030034;28;20490;-64
2021/04/03 03:28:01;;;;;;;17.67;14.68;;;10.70;49.30;;;;;;5032034;28;20079;-64
2021/04/03 03:30:29;;;;;;;17.70;14.68;;;10.70;49.40;;;;;;5014371;28;20040;-63
2021/04/03 03:32:55;;;;;;;18.75;15.35;;;10.70;49.30;;;;;;5031989;28;20633;-64
2021/04/03 03:35:21;;;;;;;17.50;14.10;;;10.70;49.30;;;;;;5031040;28;20120;-65
2021/04/03 03:37:47;;;;;;;18.48;13.93;;;10.70;49.20;;;;;;5032327;28;20021;-64
2021/04/03 03:40:15;;;;;;;18.35;14.18;;;10.80;49.00;;;;;;5031369;28;20025;-64
2021/04/03 03:42:41;;;;;;;16.33;13.55;;;10.80;48.80;;;;;;5023874;28;20029;-64
2021/04/03 03:45:11;;;;;;;16.08;13.65;;;10.90;48.60;;;;;;5025525;28;20076;-76
2021/04/03 03:47:37;;;;;;;17.63;13.43;;;11.00;48.50;;;;;;5031879;28;20029;-64
2021/04/03 03:50:05;;;;;;;17.05;14.30;;;10.90;48.30;;;;;;5031900;28;20100;-64
2021/04/03 03:52:31;;;;;;;21.10;14.07;;;11.00;48.20;;;;;;5031233;28;20033;-63
2021/04/03 03:54:57;;;;;;;18.92;13.57;;;11.10;48.00;;;;;;5031406;28;20068;-64
2021/04/03 03:57:22;;;;;;;18.65;13.88;;;11.10;48.00;;;;;;5030707;28;20057;-64
2021/04/03 03:59:48;;;;;;;17.50;13.52;;;11.00;48.20;;;;;;5014399;28;20041;-64
2021/04/03 04:02:15;;;;;;;18.55;13.70;;;11.00;48.00;;;;;;5028524;28;20030;-64
2021/04/03 04:04:41;;;;;;;19.25;13.82;;;11.10;48.10;;;;;;5013870;28;20064;-64
2021/04/03 04:07:06;;;;;;;17.08;13.45;;;11.00;48.00;;;;;;5031112;28;20064;-75
2021/04/03 04:09:33;;;;;;;17.17;13.02;;;11.00;48.00;;;;;;5031017;28;20450;-64
2021/04/03 04:12:03;;;;;;;19.23;12.85;;;11.00;48.10;;;;;;5013748;28;20029;-63
2021/04/03 04:14:31;;;;;;;16.23;13.13;;;11.00;48.00;;;;;;5030909;28;20801;-63
2021/04/03 04:16:57;;;;;;;14.82;12.85;;;11.00;48.00;;;;;;5031246;28;20083;-63
2021/04/03 04:19:22;;;;;;;14.68;12.70;;;11.00;47.90;;;;;;5030816;28;20030;-64
2021/04/03 04:21:48;;;;;;;16.50;12.75;;;11.00;48.00;;;;;;5030214;28;20040;-64
2021/04/03 04:24:14;;;;;;;18.65;12.93;;;11.00;48.20;;;;;;5025003;28;20484;-64
2021/04/03 04:26:40;;;;;;;15.57;12.48;;;10.90;48.10;;;;;;5031666;28;20039;-63
2021/04/03 04:29:05;;;;;;;18.60;12.95;;;10.90;48.10;;;;;;5031360;28;20021;-63
2021/04/03 04:31:31;;;;;;;15.85;12.98;;;10.90;48.30;;;;;;5013144;28;20025;-63
2021/04/03 04:33:57;;;;;;;15.15;12.90;;;10.80;48.50;;;;;;5020257;28;20068;-64
2021/04/03 04:36:22;;;;;;;19.23;12.00;;;10.70;48.80;;;;;;5029987;28;20037;-64
2021/04/03 04:38:48;;;;;;;17.45;12.93;;;10.60;49.00;;;;;;5027829;28;20030;-64
2021/04/03 04:41:14;;;;;;;18.50;12.63;;;10.60;49.00;;;;;;5030474;28;20417;-64
2021/04/03 04:43:39;;;;;;;15.75;11.98;;;10.60;49.00;;;;;;5031420;28;20059;-65
2021/04/03 04:46:05;;;;;;;13.73;11.38;;;10.60;49.00;;;;;;5013527;28;20393;-64
2021/04/03 04:48:31;;;;;;;15.32;11.93;;;10.60;49.00;;;;;;5030191;28;20025;-70
2021/04/03 04:50:56;;;;;;;14.32;11.63;;;10.50;49.00;;;;;;5031358;28;20100;-64
2021/04/03 04:53:22;;;;;;;18.02;10.98;;;10.50;49.10;;;;;;5012797;28;20064;-65
2021/04/03 04:55:48;;;;;;;16.55;11.13;;;10.60;48.90;;;;;;5030728;28;20429;-65
2021/04/03 04:58:13;;;;;;;14.73;11.05;;;10.60;48.80;;;;;;5012356;28;20033;-64
2021/04/03 05:00:39;;;;;;;13.57;11.10;;;10.50;48.80;;;;;;5031141;28;20435;-64
2021/04/03 05:03:05;;;;;;;16.23;10.93;;;10.50;48.90;;;;;;5030611;28;20374;-64
2021/04/03 05:05:31;;;;;;;13.25;10.35;;;10.50;48.80;;;;;;5030157;28;20029;-64
2021/04/03 05:07:56;;;;;;;15.13;10.48;;;10.60;48.70;;;;;;5005087;28;20049;-64
2021/04/03 05:10:22;;;;;;;15.45;11.07;;;10.60;48.50;;;;;;5029937;28;20435;-64
2021/04/03 05:12:48;;;;;;;14.90;10.95;;;10.50;48.60;;;;;;5030625;28;20199;-63
2021/04/03 05:15:14;;;;;;;15.27;9.98;;;10.60;48.60;;;;;;5008609;28;20038;-64
2021/04/03 05:17:39;;;;;;;16.95;10.30;;;10.50;48.70;;;;;;5013059;28;20052;-63
2021/04/03 05:20:06;;;;;;;19.35;10.30;;;10.40;48.90;;;;;;5030545;28;20029;-64
2021/04/03 05:22:32;;;;;;;16.08;10.15;;;10.40;49.00;;;;;;5012500;28;20026;-63
2021/04/03 05:24:57;;;;;;;14.13;10.25;;;10.50;48.90;;;;;;5013233;28;20113;-64
2021/04/03 05:27:23;;;;;;;15.77;10.00;;;10.60;48.70;;;;;;5029830;28;20033;-64
2021/04/03 05:29:49;;;;;;;17.92;10.63;;;10.70;48.40;;;;;;5030644;28;20496;-64
2021/04/03 05:32:14;;;;;;;15.90;10.15;;;10.60;48.30;;;;;;5029312;28;20030;-68
2021/04/03 05:34:40;;;;;;;14.20;10.02;;;10.70;48.30;;;;;;5012558;28;20047;-63
2021/04/03 05:37:06;;;;;;;12.75;9.73;;;10.80;48.10;;;;;;5012909;28;20516;-64
2021/04/03 05:39:31;;;;;;;17.33;10.77;;;10.80;47.90;;;;;;5029823;28;20549;-63
2021/04/03 05:44:43;;;;;;;15.52;9.73;;;10.90;47.50;;;;;;5023827;28;20032;-64
2021/04/03 05:47:09;;;;;;;13.75;9.18;;;10.90;47.30;;;;;;5030448;28;20030;-64
2021/04/03 05:49:35;;;;;;;13.43;9.73;;;10.90;47.20;;;;;;5013492;28;20540;-63
2021/04/03 05:52:03;;;;;;;16.75;8.98;;;11.00;47.00;;;;;;5033761;28;20040;-63
2021/04/03 05:54:30;;;;;;;16.00;9.75;;;11.10;46.70;;;;;;5015481;28;20489;-63
2021/04/03 05:56:56;;;;;;;17.92;9.13;;;11.20;46.40;;;;;;5033899;28;20539;-63
2021/04/03 05:59:22;;;;;;;10.45;8.60;;;11.30;46.10;;;;;;5015400;28;20033;-64
2021/04/03 06:01:49;;;;;;;13.48;9.43;;;11.40;45.80;;;;;;5016111;28;20386;-63
2021/04/03 06:04:15;;;;;;;11.88;8.40;;;11.50;45.50;;;;;;5015762;28;20117;-75
2021/04/03 06:06:42;;;;;;;15.15;8.68;;;11.50;45.30;;;;;;5029437;28;20490;-63
2021/04/03 06:09:08;;;;;;;20.10;8.75;;;11.50;45.50;;;;;;5033996;28;20057;-64
2021/04/03 06:11:47;;;;;;;13.80;8.95;;;11.60;45.30;;;;;;5015418;28;20045;-64
2021/04/03 06:14:13;;;;;;;11.77;9.02;;;11.70;45.10;;;;;;5028570;28;20029;-73
2021/04/03 06:16:52;;;;;;;14.82;8.27;;;11.90;44.70;;;;;;5032747;28;20030;-63
2021/04/03 06:19:18;;;;;;;13.80;8.18;;;12.10;44.20;;;;;;5032877;28;20029;-64
2021/04/03 06:22:01;;;;;;;13.23;8.75;;;12.20;43.90;;;;;;5033177;28;20033;-64
2021/04/03 06:24:37;;;;;;;12.90;8.35;;;12.30;43.10;;;;;;5025858;28;20037;-66
2021/04/03 06:27:11;;;;;;;11.98;6.88;;;12.40;42.30;;;;;;5026341;28;20033;-63
2021/04/03 06:29:39;;;;;;;;;;;12.30;41.80;;;;;;5032726;28;20315;-62
2021/04/03 06:32:22;;;;;;;10.55;6.47;;;12.30;41.60;;;;;;5015553;28;20315;-65
2021/04/03 06:34:53;;;;;;;12.07;7.15;;;12.10;41.90;;;;;;5034919;28;20042;-66
2021/04/03 06:37:32;;;;;;;11.93;6.45;;;12.20;41.80;;;;;;5032223;28;20064;-64
2021/04/03 06:40:11;;;;;;;11.85;5.95;;;12.10;41.20;;;;;;5032554;28;20382;-64
2021/04/03 06:42:52;;;;;;;9.45;5.68;;;11.90;41.60;;;;;;5014342;28;20025;-64
2021/04/03 06:45:24;;;;;;;11.40;5.85;;;12.10;41.50;;;;;;5032445;28;20022;-75
2021/04/03 06:47:52;;;;;;;9.23;5.75;;;12.30;41.10;;;;;;5032846;28;20071;-65
2021/04/03 06:50:20;;;;;;;12.05;5.85;;;12.60;40.60;;;;;;5032528;28;20425;-74
2021/04/03 06:52:46;;;;;;;7.95;4.90;;;12.90;39.70;;;;;;5032793;28;20036;-67
2021/04/03 06:55:15;;;;;;;7.57;5.43;;;13.00;39.20;;;;;;5007304;28;20032;-65
2021/04/03 06:57:43;;;;;;;10.32;5.60;;;13.10;39.00;;;;;;5014631;28;20025;-67
2021/04/03 07:00:11;;;;;;;14.52;5.57;;;13.10;39.00;;;;;;5014660;28;20033;-64
2021/04/03 07:02:44;;;;;;;9.15;6.30;;;13.40;38.90;;;;;;5026821;28;20097;-64
2021/04/03 07:05:13;;;;;;;9.48;5.18;;;13.90;38.20;;;;;;5014922;28;20056;-63
2021/04/03 07:07:44;;;;;;;10.95;5.70;;;14.40;36.90;;;;;;5013820;28;20302;-63
2021/04/03 07:10:13;;;;;;;11.88;5.70;;;14.40;36.60;;;;;;5014359;28;20026;-63
2021/04/03 07:12:40;;;;;;;8.23;5.07;;;14.60;36.40;;;;;;5014051;28;20033;-64
2021/04/03 07:15:10;;;;;;;9.80;5.50;;;15.00;36.60;;;;;;5032777;28;20034;-65
2021/04/03 07:17:41;;;;;;;10.77;5.65;;;15.30;35.40;;;;;;5029567;28;20252;-65
2021/04/03 07:20:12;;;;;;;8.85;5.07;;;15.60;34.80;;;;;;5012835;28;20026;-64
2021/04/03 07:22:42;;;;;;;8.25;5.30;;;15.50;34.40;;;;;;5013720;28;20478;-63
2021/04/03 07:25:09;;;;;;;10.38;4.97;;;16.20;34.80;;;;;;5032164;28;20021;-63
2021/04/03 07:27:43;;;;;;;11.32;6.80;;;17.00;32.60;;;;;;5031049;28;20033;-64
2021/04/03 07:30:10;;;;;;;8.15;5.05;;;17.10;32.80;;;;;;5032435;28;20108;-64
2021/04/03 07:32:39;;;;;;;8.25;4.97;;;17.30;31.80;;;;;;5013627;28;20056;-64
2021/04/03 07:35:15;;;;;;;10.65;6.78;;;17.10;31.90;;;;;;5032282;28;20034;-65
2021/04/03 07:37:41;;;;;;;11.13;5.43;;;17.10;32.50;;;;;;5008528;28;20040;-63
2021/04/03 07:40:11;;;;;;;6.82;4.32;;;19.10;29.80;;;;;;5026528;28;20028;-64
2021/04/03 07:42:38;;;;;;;7.45;4.72;;;19.30;29.20;;;;;;5030301;28;20505;-66
2021/04/03 07:45:06;;;;;;;9.13;4.90;;;19.00;29.30;;;;;;5030738;28;20124;-65
2021/04/03 07:47:46;;;;;;;7.68;4.60;;;18.50;29.40;;;;;;5031519;28;20468;-65
2021/04/03 07:50:32;;;;;;;8.90;4.85;;;18.00;30.10;;;;;;5029912;28;20053;-64
2021/04/03 07:52:58;;;;;;;10.07;4.53;;;17.60;30.70;;;;;;5026253;28;20033;-65
2021/04/03 07:55:42;;;;;;;10.20;4.88;;;18.10;30.30;;;;;;5026106;28;20087;-63
2021/04/03 07:58:19;;;;;;;;;;;19.50;29.20;;;;;;5020636;28;20034;-65
2021/04/03 08:00:49;;;;;;;7.00;4.30;;;20.70;28.40;;;;;;5020033;28;19906;-64
2021/04/03 08:03:20;;;;;;;7.80;4.18;;;21.90;26.90;;;;;;5003455;28;20041;-65
2021/04/03 08:05:48;;;;;;;9.00;8.13;;;22.40;26.10;;;;;;5025052;28;20021;-64
2021/04/03 08:08:17;;;;;;;10.93;8.00;;;22.70;26.70;;;;;;5024045;28;20045;-66
2021/04/03 08:10:43;;;;;;;10.23;4.60;;;24.70;25.00;;;;;;5022246;28;20068;-64
2021/04/03 08:13:10;;;;;;;8.20;6.85;;;25.60;24.30;;;;;;5024156;28;20386;-64
2021/04/03 08:15:37;;;;;;;8.05;6.30;;;24.80;24.10;;;;;;5024959;28;20474;-67
2021/04/03 08:18:09;;;;;;;9.60;5.05;;;25.50;23.60;;;;;;5019759;28;20171;-63
2021/04/03 08:20:35;;;;;;;6.75;5.25;;;26.60;22.80;;;;;;5023091;28;20030;-65
2021/04/03 08:23:03;;;;;;;8.38;4.93;;;27.40;22.40;;;;;;5020109;28;20026;-69
2021/04/03 08:25:29;;;;;;;7.03;4.55;;;27.10;22.40;;;;;;5024327;28;20021;-64
2021/04/03 08:27:57;;;;;;;6.20;3.75;;;26.00;23.00;;;;;;5006171;28;20022;-65
2021/04/03 08:30:33;;;;;;;8.25;6.43;;;26.00;22.60;;;;;;5024190;28;20409;-66
2021/04/03 08:33:11;;;;;;;5.32;4.13;;;23.90;23.80;;;;;;5024481;28;20030;-64
2021/04/03 08:35:38;;;;;;;7.25;3.67;;;22.40;25.20;;;;;;5004934;28;20033;-64
2021/04/03 08:38:13;;;;;;;8.15;4.13;;;22.30;25.60;;;;;;5030835;28;20398;-64
2021/04/03 08:40:40;;;;;;;7.85;4.05;;;21.50;26.10;;;;;;5027501;28;20029;-64
2021/04/03 08:43:06;;;;;;;4.40;3.22;;;20.20;27.90;;;;;;5027224;28;20451;-67
2021/04/03 08:45:42;;;;;;;7.72;3.10;;;19.40;28.80;;;;;;5011395;28;20028;-68
2021/04/03 08:48:09;;;;;;;5.95;2.92;;;18.20;30.10;;;;;;5027503;28;20021;-65
2021/04/03 08:50:36;;;;;;;6.97;5.50;;;17.20;32.00;;;;;;5024137;28;20168;-65
2021/04/03 08:53:03;;;;;;;4.57;3.03;;;18.40;31.50;;;;;;5028230;28;20630;-65
2021/04/03 08:55:29;;;;;;;7.55;3.00;;;19.10;29.50;;;;;;5027393;28;20478;-65
2021/04/03 08:57:57;;;;;;;5.38;2.80;;;17.70;30.90;;;;;;5029013;28;20028;-64
2021/04/03 09:00:24;;;;;;;6.15;3.10;;;16.30;33.20;;;;;;5029485;28;20057;-71
2021/04/03 09:02:55;;;;;;;3.35;2.70;;;15.90;34.80;;;;;;5029651;28;20482;-65
2021/04/03 09:05:21;;;;;;;8.18;2.75;;;15.60;35.60;;;;;;5029831;28;20031;-66
2021/04/03 09:07:47;;;;;;;5.05;2.70;;;15.70;35.50;;;;;;5029534;28;20041;-64
2021/04/03 09:10:23;;;;;;;5.70;2.60;;;16.00;35.20;;;;;;5029520;28;20025;-66
2021/04/03 09:12:50;;;;;;;5.30;3.05;;;16.30;34.70;;;;;;5008161;28;20037;-68
2021/04/03 09:15:29;;;;;;;6.13;2.90;;;15.70;35.60;;;;;;5014167;28;20029;-65
2021/04/03 09:17:56;;;;;;;3.58;2.70;;;15.10;37.00;;;;;;5013433;28;20120;-65
2021/04/03 09:20:26;;;;;;;5.63;3.20;;;15.00;37.50;;;;;;5029320;28;20034;-78
2021/04/03 09:22:54;;;;;;;4.70;2.90;;;14.70;38.20;;;;;;5030746;28;20179;-65
2021/04/03 09:25:22;;;;;;;8.55;3.03;;;14.90;38.10;;;;;;5033784;28;20037;-65
2021/04/03 09:28:04;;;;;;;7.75;3.55;;;14.90;37.90;;;;;;5034595;28;20032;-65
2021/04/03 09:30:39;;;;;;;4.85;3.20;;;14.60;38.70;;;;;;5033804;28;20022;-65
2021/04/03 09:33:23;;;;;;;5.47;3.20;;;14.90;38.40;;;;;;5012601;28;20038;-63
2021/04/03 09:35:49;;;;;;;;;;;15.00;38.00;;;;;;5026130;28;20210;-64
2021/04/03 09:38:26;;;;;;;5.53;3.53;;;15.30;37.70;;;;;;5024262;28;19909;-65
2021/04/03 09:40:52;;;;;;;5.72;3.22;;;15.30;37.40;;;;;;5018985;28;20390;-65
2021/04/03 09:43:17;;;;;;;4.53;3.15;;;15.40;36.90;;;;;;5015689;28;20521;-64
2021/04/03 09:45:43;;;;;;;4.32;2.85;;;15.30;37.10;;;;;;5021859;28;20034;-65
2021/04/03 09:48:11;;;;;;;5.03;3.20;;;15.40;37.00;;;;;;4992810;28;20049;-66
2021/04/03 09:50:43;;;;;;;5.13;3.17;;;15.20;37.20;;;;;;5020021;28;20029;-69
2021/04/03 09:53:12;;;;;;;4.72;3.28;;;15.10;37.20;;;;;;5030160;28;20037;-71
2021/04/03 09:55:38;;;;;;;7.28;3.03;;;15.20;37.10;;;;;;5029845;28;20130;-63
2021/04/03 09:58:04;;;;;;;7.13;3.28;;;15.50;36.70;;;;;;5017413;28;20030;-66
2021/04/03 10:00:30;;;;;;;3.65;3.08;;;15.20;37.00;;;;;;5010948;28;20467;-64
2021/04/03 10:02:56;;;;;;;6.88;3.33;;;14.70;38.00;;;;;;5001176;28;20036;-65
2021/04/03 10:05:22;;;;;;;5.72;3.38;;;14.50;38.50;;;;;;4991478;28;20068;-65
2021/04/03 10:07:48;;;;;;;5.18;4.00;;;14.80;38.80;;;;;;4953262;28;20410;-66
2021/04/03 10:10:14;;;;;;;5.85;3.38;;;14.80;37.90;;;;;;5000877;28;20498;-65
2021/04/03 10:12:40;;;;;;;5.25;3.63;;;14.90;37.90;;;;;;5007436;28;20393;-64
2021/04/03 10:15:07;;;;;;;6.03;3.60;;;15.20;37.30;;;;;;5019330;28;20045;-65
2021/04/03 10:17:51;;;;;;;4.22;3.40;;;15.30;36.70;;;;;;5021352;28;20030;-64
2021/04/03 10:20:18;;;;;;;5.05;3.22;;;15.30;37.00;;;;;;5021817;28;20033;-65
2021/04/03 10:22:44;;;;;;;3.83;3.35;;;15.20;37.10;;;;;;5012852;28;20064;-64
2021/04/03 10:25:11;;;;;;;4.88;3.30;;;15.40;36.70;;;;;;5025297;28;20100;-66
2021/04/03 10:27:37;;;;;;;4.88;3.65;;;15.40;36.60;;;;;;5031725;28;20034;-66
2021/04/03 10:30:04;;;;;;;6.05;3.78;;;15.30;36.70;;;;;;5014138;28;20049;-65
2021/04/03 10:32:30;;;;;;;5.65;3.38;;;15.10;37.40;;;;;;5013086;28;20030;-64
2021/04/03 10:34:56;;;;;;;6.60;3.65;;;15.20;37.60;;;;;;5014323;28;20028;-64
2021/04/03 10:37:22;;;;;;;6.45;3.75;;;14.90;38.30;;;;;;5007467;28;20116;-68
2021/04/03 10:39:48;;;;;;;4.47;3.75;;;14.80;38.40;;;;;;5019448;28;20113;-68
2021/04/03 10:42:14;;;;;;;5.65;3.47;;;15.10;38.00;;;;;;5018470;28;20034;-65
2021/04/03 10:44:39;;;;;;;5.07;3.40;;;15.20;38.20;;;;;;5015233;28;20036;-64
2021/04/03 10:47:05;;;;;;;6.88;3.67;;;14.90;39.90;;;;;;5027417;28;20054;-64
2021/04/03 10:49:31;;;;;;;6.13;3.63;;;14.50;41.10;;;;;;4995805;28;20121;-65
2021/04/03 10:51:57;;;;;;;6.47;3.90;;;14.50;40.30;;;;;;5026204;28;20049;-63
2021/04/03 10:54:23;;;;;;;5.22;3.38;;;14.30;40.40;;;;;;4999803;28;20458;-65
2021/04/03 10:56:49;;;;;;;7.13;3.55;;;14.40;40.20;;;;;;5016165;28;20479;-64
2021/04/03 10:59:15;;;;;;;9.23;3.47;;;14.60;43.80;;;;;;5008846;28;20037;-65
2021/04/03 11:01:41;;;;;;;10.48;3.88;;;14.60;44.40;;;;;;5015863;28;20017;-65
2021/04/03 11:04:26;;;;;;;6.43;3.92;;;14.60;45.30;;;;;;5033522;28;20387;-64
2021/04/03 11:06:52;;;;;;;7.05;3.97;;;14.60;44.80;;;;;;4998726;28;20050;-65
2021/04/03 11:09:23;;;;;;;11.55;4.72;;;14.50;43.60;;;;;;5013985;28;20025;-64
2021/04/03 11:11:49;;;;;;;11.88;4.13;;;14.00;48.90;;;;;;5015342;28;20116;-64
2021/04/03 11:14:15;;;;;;;7.63;4.05;;;13.60;52.10;;;;;;5031002;28;20033;-64
2021/04/03 11:16:40;;;;;;;7.32;3.60;;;13.30;52.20;;;;;;5030084;28;20036;-63
2021/04/03 11:19:06;;;;;;;4.07;3.05;;;13.10;50.90;;;;;;5013322;28;20105;-64
2021/04/03 11:21:32;;;;;;;4.40;2.97;;;12.90;48.20;;;;;;5012510;28;20026;-64
2021/04/03 11:23:57;;;;;;;3.97;3.20;;;12.90;48.40;;;;;;5025789;28;20033;-64
2021/04/03 11:26:23;;;;;;;4.05;3.15;;;13.00;48.00;;;;;;5016388;28;20037;-67
2021/04/03 11:28:49;;;;;;;5.85;3.25;;;13.40;46.80;;;;;;5015208;28;20552;-64
2021/04/03 11:31:14;;;;;;;4.43;3.13;;;13.60;46.70;;;;;;5008335;28;20041;-64
2021/04/03 11:33:40;;;;;;;4.38;3.35;;;13.60;46.60;;;;;;5004934;28;20029;-64
2021/04/03 11:36:06;;;;;;;5.10;3.30;;;13.60;47.10;;;;;;5000842;28;20054;-63
2021/04/03 11:38:32;;;;;;;6.38;3.95;;;13.80;46.50;;;;;;4987521;28;20183;-61
2021/04/03 11:40:57;;;;;;;6.70;4.35;;;14.00;46.50;;;;;;5015816;28;20498;-61
2021/04/03 11:43:23;;;;;;;5.30;4.10;;;13.80;47.20;;;;;;5021464;28;20487;-63
2021/04/03 11:45:50;;;;;;;12.38;4.75;;;13.30;49.20;;;;;;5005282;28;20124;-64
2021/04/03 11:48:16;;;;;;;7.45;4.60;;;12.90;49.50;;;;;;5024772;28;20482;-66
2021/04/03 11:50:41;;;;;;;6.45;4.53;;;12.90;49.50;;;;;;5015111;28;20032;-66
2021/04/03 11:53:07;;;;;;;7.28;5.20;;;13.00;50.40;;;;;;5027067;28;20030;-65
2021/04/03 11:55:33;;;;;;;6.90;4.85;;;13.10;49.50;;;;;;5010411;28;20053;-64
2021/04/03 11:57:59;;;;;;;8.18;4.80;;;13.50;49.20;;;;;;5011838;28;20485;-65
2021/04/03 12:00:25;;;;;;;6.93;4.45;;;13.70;48.10;;;;;;4995126;28;20025;-65
2021/04/03 12:02:50;;;;;;;6.28;4.30;;;14.00;48.20;;;;;;5026726;28;20110;-66
2021/04/03 12:05:17;;;;;;;4.35;3.40;;;13.90;46.00;;;;;;5009916;28;20037;-64
2021/04/03 12:07:43;;;;;;;4.18;3.08;;;13.90;43.90;;;;;;5006887;28;20045;-64
2021/04/03 12:10:11;;;;;;;4.03;2.78;;;14.00;43.50;;;;;;5028715;28;20029;-67
2021/04/03 12:12:39;;;;;;;4.55;2.83;;;14.00;42.40;;;;;;5028535;28;20067;-64
2021/04/03 12:15:08;;;;;;;3.70;2.78;;;13.70;41.70;;;;;;5011757;28;20061;-76
2021/04/03 12:17:34;;;;;;;4.75;2.97;;;13.60;42.20;;;;;;5015524;28;20040;-65
2021/04/03 12:20:00;;;;;;;5.30;3.33;;;13.80;41.90;;;;;;5022191;28;20068;-72
2021/04/03 12:22:25;;;;;;;7.05;3.03;;;14.20;42.20;;;;;;5000957;28;20022;-68
2021/04/03 12:24:51;;;;;;;3.55;2.78;;;14.40;40.90;;;;;;5018904;28;20493;-69
2021/04/03 12:27:17;;;;;;;5.03;3.22;;;14.50;41.00;;;;;;5025653;28;20053;-65
2021/04/03 12:29:42;;;;;;;4.85;3.60;;;14.70;40.10;;;;;;5018203;28;20105;-63
2021/04/03 12:32:08;;;;;;;7.35;3.90;;;14.90;40.00;;;;;;5017951;28;20044;-66
2021/04/03 12:34:34;;;;;;;5.43;3.55;;;15.10;39.10;;;;;;5004808;28;20037;-67
2021/04/03 12:37:00;;;;;;;4.60;3.40;;;15.00;38.70;;;;;;5018802;28;20079;-64
2021/04/03 12:39:25;;;;;;;5.90;4.30;;;14.80;39.10;;;;;;5024516;28;20038;-65
2021/04/03 12:41:51;;;;;;;6.82;4.13;;;14.40;40.30;;;;;;5026986;28;20056;-65
2021/04/03 12:44:17;;;;;;;5.68;3.90;;;14.10;41.70;;;;;;5022229;28;20456;-68
2021/04/03 12:46:42;;;;;;;10.55;4.70;;;14.00;42.50;;;;;;5020849;28;20075;-68